Terminal Aerodrome Forecast
Issued by NWS Raleigh/Durham, NC

Home | Current Version | Previous Version | Text Only | Print | Product List | Glossary On
Versions: 1 2 3 4 5 6 7 8 9 10 11 12
000
FTUS42 KRAH 221731
TAFRDU
TAF
KRDU 221731Z 2218/2318 VRB04KT P6SM FEW250
     FM222200 VRB03KT P6SM BKN045
     FM230000 00000KT P6SM BKN035
     FM230300 00000KT P6SM OVC035
     FM230600 00000KT P6SM SCT060
     FM231000 13009KT P6SM OVC020
     FM231600 14010G21KT P6SM OVC025=

USA.gov is the U.S. government's official web portal to all federal, state and local government web resources and services.